Time;durP1;ratioP1;P1;durP2;ratioP2;P2;SDS_P1;SDS_P2;PMS_P1;PMS_P2;Temp;Humidity;BMP_temperature;BMP_pressure;BME280_temperature;BME280_humidity;BME280_pressure;Samples;Min_cycle;Max_cycle;Signal;HPM_P1;HPM_P2
2023/01/19 00:00:16;;;;;;;8.63;5.93;;;;;;;-2.40;100.00;95006.56;5075456;28;20530;-75
2023/01/19 00:02:46;;;;;;;8.30;5.40;;;;;;;-2.40;100.00;95017.69;5082956;28;20432;-75
2023/01/19 00:05:13;;;;;;;8.80;5.87;;;;;;;-2.54;100.00;95044.47;5086271;28;20434;-75
2023/01/19 00:07:40;;;;;;;8.20;4.83;;;;;;;-2.83;100.00;95021.22;5071384;28;20994;-75
2023/01/19 00:10:08;;;;;;;7.50;5.33;;;;;;;-2.93;100.00;95023.94;5078138;28;20498;-75
2023/01/19 00:12:35;;;;;;;11.40;6.47;;;;;;;-3.07;100.00;95013.44;5080722;28;20420;-75
2023/01/19 00:15:03;;;;;;;10.20;6.07;;;;;;;-3.38;100.00;94995.59;5094075;28;20424;-76
2023/01/19 00:17:29;;;;;;;6.53;5.87;;;;;;;-3.16;100.00;95010.69;5099897;28;20471;-76
2023/01/19 00:19:56;;;;;;;11.97;7.57;;;;;;;-3.07;100.00;95034.91;5106726;28;20464;-76
2023/01/19 00:22:23;;;;;;;6.03;5.40;;;;;;;-3.27;100.00;95015.16;5086948;28;20468;-75
2023/01/19 00:24:49;;;;;;;6.50;5.67;;;;;;;-3.39;100.00;95008.78;5086747;28;20487;-75
2023/01/19 00:27:16;;;;;;;7.23;5.80;;;;;;;-3.14;100.00;95047.34;5068880;28;20986;-75
2023/01/19 00:29:43;;;;;;;5.73;4.73;;;;;;;-3.18;100.00;95048.94;5059946;28;20514;-75
2023/01/19 00:32:09;;;;;;;8.23;6.53;;;;;;;-3.30;100.00;95030.44;5073651;28;20431;-75
2023/01/19 00:34:38;;;;;;;7.00;6.17;;;;;;;-3.74;100.00;94986.56;5078778;28;20446;-75
2023/01/19 00:37:06;;;;;;;8.50;6.17;;;;;;;-3.51;100.00;95032.38;5092973;28;20484;-75
2023/01/19 00:39:32;;;;;;;7.83;5.40;;;;;;;-3.36;100.00;95047.78;5059348;28;20962;-75
2023/01/19 00:44:44;;;;;;;6.80;6.03;;;;;;;-3.58;100.00;95030.13;5081888;28;20506;-75
2023/01/19 00:47:11;;;;;;;7.50;6.27;;;;;;;-3.47;100.00;95030.03;5079539;28;20823;-75
2023/01/19 00:49:38;;;;;;;9.00;5.80;;;;;;;-3.50;100.00;95017.66;5081789;28;20551;-76
2023/01/19 00:52:05;;;;;;;7.40;6.37;;;;;;;-3.07;100.00;95071.09;5085107;28;20440;-75
2023/01/19 00:54:32;;;;;;;7.33;6.73;;;;;;;-3.23;100.00;95079.22;5071774;28;20428;-75
2023/01/19 00:56:58;;;;;;;10.10;6.30;;;;;;;-3.72;100.00;95023.25;5084847;28;20456;-75
2023/01/19 00:59:25;;;;;;;8.80;6.90;;;;;;;-3.65;100.00;95045.13;5082325;28;20427;-75
2023/01/19 01:01:52;;;;;;;8.87;7.37;;;;;;;-3.52;100.00;95089.47;5060731;28;20537;-75
2023/01/19 01:04:18;;;;;;;7.77;6.03;;;;;;;-3.53;100.00;95086.13;5082107;28;20439;-75
2023/01/19 01:06:45;;;;;;;10.57;6.43;;;;;;;-3.76;100.00;95066.88;5073841;28;20479;-75
2023/01/19 01:09:12;;;;;;;11.20;7.10;;;;;;;-3.95;100.00;95053.06;5071108;28;20456;-75
2023/01/19 01:11:40;;;;;;;8.97;7.27;;;;;;;-3.57;100.00;95109.13;5084805;28;20810;-75
2023/01/19 01:14:08;;;;;;;7.50;6.03;;;;;;;-3.59;100.00;95100.13;5082956;28;20472;-76
2023/01/19 01:16:35;;;;;;;9.57;7.17;;;;;;;-3.73;100.00;95092.19;5085527;28;20889;-75
2023/01/19 01:19:02;;;;;;;9.27;7.40;;;;;;;-3.76;100.00;95107.41;5084381;28;20447;-76
2023/01/19 01:21:29;;;;;;;9.20;6.60;;;;;;;-4.11;100.00;95069.66;5077401;28;20946;-75
2023/01/19 01:23:55;;;;;;;6.17;5.37;;;;;;;-4.03;100.00;95084.56;5066630;28;20881;-76
2023/01/19 01:26:22;;;;;;;8.90;6.33;;;;;;;-4.12;100.00;95066.28;5072011;28;20744;-75
2023/01/19 01:28:49;;;;;;;7.63;6.30;;;;;;;-3.73;100.00;95112.84;5086186;28;20539;-75
2023/01/19 01:31:16;;;;;;;8.50;7.10;;;;;;;-3.86;100.00;95082.44;5071072;28;20436;-75
2023/01/19 01:33:42;;;;;;;7.73;6.73;;;;;;;-3.69;100.00;95095.00;5071866;28;20527;-75
2023/01/19 01:36:10;;;;;;;9.73;6.77;;;;;;;-3.83;100.00;95057.91;5071723;28;20518;-75
2023/01/19 01:38:39;;;;;;;9.57;6.90;;;;;;;-3.77;100.00;95098.91;5050402;28;20933;-76
2023/01/19 01:41:06;;;;;;;7.03;6.27;;;;;;;-3.71;100.00;95128.84;5064139;28;20469;-75
2023/01/19 01:44:07;;;;;;;10.00;7.40;;;;;;;-4.08;100.00;95097.50;5078356;28;21001;-75
2023/01/19 01:46:33;;;;;;;12.50;7.37;;;;;;;-3.87;100.00;95115.22;5056823;28;20464;-76
2023/01/19 01:49:06;;;;;;;12.93;6.70;;;;;;;-3.87;100.00;95129.94;5078723;28;20551;-75
2023/01/19 01:51:39;;;;;;;10.03;7.40;;;;;;;-4.14;100.00;95095.94;5062865;28;20436;-75
2023/01/19 01:54:11;;;;;;;10.53;8.33;;;;;;;-3.70;100.00;95132.19;5063970;28;20415;-75
2023/01/19 01:56:45;;;;;;;8.43;7.03;;;;;;;-3.77;100.00;95114.38;5061938;28;21063;-75
2023/01/19 01:59:24;;;;;;;9.10;7.13;;;;;;;-3.80;100.00;95121.91;5080441;28;20404;-75
2023/01/19 02:04:52;;;;;;;14.93;6.30;;;;;;;-4.09;100.00;95132.84;5083202;28;20930;-76
2023/01/19 02:13:20;;;;;;;8.13;6.70;;;;;;;-4.20;100.00;95142.41;5072069;28;20544;-75
2023/01/19 02:15:51;;;;;;;8.20;6.77;;;;;;;-4.20;100.00;95154.53;5085729;28;20450;-75
2023/01/19 02:18:20;;;;;;;10.30;6.93;;;;;;;-4.33;100.00;95149.94;5071786;28;20420;-75
2023/01/19 02:20:56;;;;;;;8.50;7.13;;;;;;;-4.56;100.00;95133.19;5084475;28;20438;-75
2023/01/19 02:23:56;;;;;;;10.10;6.87;;;;;;;-4.52;100.00;95149.72;5051916;28;20427;-75
2023/01/19 02:26:25;;;;;;;12.33;7.67;;;;;;;-4.47;100.00;95160.00;5080364;28;20491;-75
2023/01/19 02:28:57;;;;;;;9.83;7.40;;;;;;;-4.48;100.00;95158.47;5077893;28;20531;-75
2023/01/19 02:31:25;;;;;;;11.50;8.47;;;;;;;-4.54;100.00;95165.44;5037505;28;20816;-75
2023/01/19 02:33:52;;;;;;;10.87;8.13;;;;;;;-4.69;100.00;95134.50;5080451;28;20431;-75
2023/01/19 02:36:25;;;;;;;10.63;7.80;;;;;;;-4.80;100.00;95149.22;5077380;28;20451;-75
2023/01/19 02:38:55;;;;;;;10.17;8.40;;;;;;;-4.69;100.00;95157.69;5060835;28;20476;-75
2023/01/19 02:41:26;;;;;;;11.80;8.40;;;;;;;-4.45;100.00;95181.16;5078747;28;20427;-75
2023/01/19 02:43:56;;;;;;;10.63;7.50;;;;;;;-4.64;100.00;95164.66;5072675;28;20936;-75
2023/01/19 02:46:23;;;;;;;11.77;7.77;;;;;;;-4.73;100.00;95161.06;5069475;28;20570;-75
2023/01/19 02:48:50;;;;;;;11.43;9.63;;;;;;;-4.82;100.00;95165.94;5062765;28;20440;-75
2023/01/19 02:51:21;;;;;;;11.53;7.93;;;;;;;-5.10;100.00;95149.19;5070277;28;20439;-75
2023/01/19 02:53:54;;;;;;;9.93;8.00;;;;;;;-4.85;100.00;95169.03;5076312;28;20407;-75
2023/01/19 02:56:36;;;;;;;11.80;7.50;;;;;;;-4.88;100.00;95165.19;5077105;28;20481;-75
2023/01/19 02:59:13;;;;;;;11.83;7.63;;;;;;;-4.88;100.00;95172.13;5065576;28;20492;-75
2023/01/19 03:01:58;;;;;;;7.23;6.53;;;;;;;-5.02;100.00;95150.50;5059685;28;20451;-75
2023/01/19 03:04:37;;;;;;;10.83;7.13;;;;;;;-4.84;100.00;95173.94;5071368;28;20408;-75
2023/01/19 03:07:18;;;;;;;11.50;7.43;;;;;;;-5.23;100.00;95129.06;5056346;28;20591;-75
2023/01/19 03:09:59;;;;;;;9.90;7.87;;;;;;;-5.02;100.00;95151.25;5054833;28;20451;-75
2023/01/19 03:12:43;;;;;;;7.50;6.70;;;;;;;-5.03;100.00;95136.06;5067611;28;20451;-75
2023/01/19 03:15:21;;;;;;;8.60;7.10;;;;;;;-4.91;100.00;95157.97;5068704;28;20448;-75
2023/01/19 03:17:50;;;;;;;13.23;7.97;;;;;;;-5.00;100.00;95135.53;5075865;28;20505;-75
2023/01/19 03:20:22;;;;;;;13.43;9.03;;;;;;;-4.94;100.00;95149.97;5062764;28;20440;-75
2023/01/19 03:22:54;;;;;;;15.27;9.80;;;;;;;-5.07;100.00;95136.56;5084942;28;20454;-74
2023/01/19 03:25:23;;;;;;;14.30;9.80;;;;;;;-5.03;100.00;95143.78;5080178;28;20451;-75
2023/01/19 03:27:53;;;;;;;12.47;7.23;;;;;;;-4.89;100.00;95171.38;5058643;28;20532;-75
2023/01/19 03:30:26;;;;;;;10.40;8.70;;;;;;;-5.01;100.00;95164.91;5070249;28;20460;-75
2023/01/19 03:32:58;;;;;;;9.87;7.70;;;;;;;-5.48;100.00;95122.06;5082675;28;20426;-75
2023/01/19 03:35:30;;;;;;;10.43;7.53;;;;;;;-5.20;100.00;95167.22;5065678;28;20447;-74
2023/01/19 03:37:59;;;;;;;9.03;7.47;;;;;;;-5.11;100.00;95169.00;5063279;28;20435;-74
2023/01/19 03:40:29;;;;;;;8.60;7.60;;;;;;;-5.55;100.00;95137.00;5056111;28;20475;-74
2023/01/19 03:42:56;;;;;;;10.17;8.80;;;;;;;-5.28;100.00;95183.16;5080934;28;20427;-74
2023/01/19 03:45:24;;;;;;;8.93;6.80;;;;;;;-5.56;100.00;95149.09;5060442;28;20435;-74
2023/01/19 03:47:51;;;;;;;10.20;8.20;;;;;;;-5.56;100.00;95154.25;5075805;28;20809;-74
2023/01/19 03:50:26;;;;;;;7.60;6.60;;;;;;;-5.35;100.00;95191.88;5079012;28;20463;-74
2023/01/19 03:53:01;;;;;;;12.80;7.70;;;;;;;-5.26;100.00;95186.25;5062208;28;20439;-74
2023/01/19 03:55:28;;;;;;;9.93;6.80;;;;;;;-5.53;100.00;95147.81;5076866;28;20429;-74
2023/01/19 03:57:55;;;;;;;7.93;6.77;;;;;;;-5.45;100.00;95160.22;5080954;28;20440;-74
2023/01/19 04:00:22;;;;;;;12.53;7.27;;;;;;;-5.82;100.00;95132.03;5087329;28;20519;-74
2023/01/19 04:02:48;;;;;;;6.87;5.80;;;;;;;-5.61;100.00;95192.06;5052318;28;20437;-74
2023/01/19 04:05:15;;;;;;;9.83;6.77;;;;;;;-5.62;100.00;95195.66;5085373;28;20447;-74
2023/01/19 04:07:42;;;;;;;12.47;8.10;;;;;;;-5.91;100.00;95154.16;5071970;28;20432;-74
2023/01/19 04:10:12;;;;;;;9.00;7.43;;;;;;;-5.63;100.00;95192.31;5061026;28;20451;-74
2023/01/19 04:12:41;;;;;;;6.93;6.23;;;;;;;-5.89;100.00;95160.56;5079491;28;20522;-74
2023/01/19 04:15:08;;;;;;;9.53;5.63;;;;;;;-5.94;100.00;95165.72;5085267;28;20527;-74
2023/01/19 04:17:35;;;;;;;8.80;6.23;;;;;;;-5.99;100.00;95152.84;5086177;28;20944;-74
2023/01/19 04:20:02;;;;;;;9.70;7.33;;;;;;;-5.72;100.00;95178.41;5067210;28;20455;-74
2023/01/19 04:22:29;;;;;;;7.37;5.20;;;;;;;-5.48;100.00;95194.94;5078306;28;20468;-74
2023/01/19 04:24:55;;;;;;;7.87;7.00;;;;;;;-5.45;100.00;95203.97;5062009;28;20538;-74
2023/01/19 04:27:22;;;;;;;9.50;7.50;;;;;;;-5.59;100.00;95206.25;5066121;28;20972;-74
2023/01/19 04:29:48;;;;;;;7.80;6.70;;;;;;;-6.02;100.00;95166.97;5078674;28;20982;-74
2023/01/19 04:32:15;;;;;;;8.90;7.23;;;;;;;-6.09;100.00;95181.09;5078326;28;20928;-75
2023/01/19 04:34:42;;;;;;;9.53;7.43;;;;;;;-6.05;100.00;95198.34;5060959;28;20529;-74
2023/01/19 04:37:09;;;;;;;9.27;7.67;;;;;;;-5.99;100.00;95206.88;5078966;28;20546;-74
2023/01/19 04:39:35;;;;;;;11.40;8.87;;;;;;;-6.05;100.00;95198.34;5078981;28;20448;-74
2023/01/19 04:42:02;;;;;;;6.40;5.80;;;;;;;-6.11;100.00;95194.19;5078152;28;20516;-74
2023/01/19 04:44:29;;;;;;;17.10;6.83;;;;;;;-6.07;100.00;95181.59;5084202;28;20431;-74
2023/01/19 04:46:55;;;;;;;10.57;7.50;;;;;;;-6.42;100.00;95146.94;5084594;28;20455;-74
2023/01/19 04:49:22;;;;;;;7.30;6.07;;;;;;;-6.27;100.00;95169.44;5079199;28;20423;-74
2023/01/19 04:51:52;;;;;;;8.00;6.20;;;;;;;-6.18;100.00;95198.78;5061704;28;20430;-74
2023/01/19 04:54:19;;;;;;;9.20;6.53;;;;;;;-6.11;100.00;95199.34;5051231;28;20441;-74
2023/01/19 04:56:46;;;;;;;8.63;6.47;;;;;;;-6.20;100.00;95190.53;5080252;28;20480;-74
2023/01/19 04:59:13;;;;;;;10.50;7.53;;;;;;;-6.46;100.00;95174.19;5079989;28;20458;-74
2023/01/19 05:01:39;;;;;;;10.27;7.33;;;;;;;-6.57;100.00;95152.78;5062166;28;20922;-74
2023/01/19 05:04:07;;;;;;;12.70;8.27;;;;;;;-6.37;100.00;95185.56;5079928;28;20432;-74
2023/01/19 05:06:34;;;;;;;14.30;8.70;;;;;;;-6.90;100.00;95111.97;5073023;28;20788;-74
2023/01/19 05:09:00;;;;;;;10.93;8.37;;;;;;;-6.51;100.00;95168.25;5069169;28;20432;-74
2023/01/19 05:11:27;;;;;;;14.60;10.67;;;;;;;-6.44;100.00;95158.50;5073855;28;21066;-74
2023/01/19 05:13:53;;;;;;;13.80;9.83;;;;;;;-6.25;100.00;95172.53;5064634;28;20983;-74
2023/01/19 05:16:20;;;;;;;10.87;8.47;;;;;;;-6.03;100.00;95198.09;5076668;28;20917;-74
2023/01/19 05:18:47;;;;;;;21.07;11.13;;;;;;;-6.02;100.00;95195.25;5081095;28;20440;-74
2023/01/19 05:21:14;;;;;;;13.73;11.27;;;;;;;-6.11;100.00;95199.34;5070740;28;20432;-75
2023/01/19 05:23:40;;;;;;;8.80;7.70;;;;;;;-6.57;100.00;95206.75;5072284;28;20438;-75
2023/01/19 05:26:07;;;;;;;11.40;8.53;;;;;;;-6.19;100.00;95224.75;5067198;28;21083;-74
2023/01/19 05:28:38;;;;;;;10.53;9.40;;;;;;;-6.29;100.00;95207.44;5080970;28;21059;-74
2023/01/19 05:31:05;;;;;;;12.13;8.00;;;;;;;-6.66;100.00;95205.66;5076973;28;20487;-74
2023/01/19 05:33:32;;;;;;;15.43;9.07;;;;;;;-6.44;100.00;95199.63;5090683;28;20431;-74
2023/01/19 05:35:58;;;;;;;11.10;8.77;;;;;;;-6.32;100.00;95206.16;5076991;28;20521;-74
2023/01/19 05:38:25;;;;;;;14.30;10.90;;;;;;;-6.44;100.00;95182.41;5079988;28;20436;-74
2023/01/19 05:41:04;;;;;;;11.07;8.80;;;;;;;-6.58;100.00;95166.63;5068619;28;20911;-74
2023/01/19 05:43:31;;;;;;;9.43;7.53;;;;;;;-6.21;100.00;95212.13;5070392;28;20490;-74
2023/01/19 05:45:58;;;;;;;11.70;8.47;;;;;;;-6.05;100.00;95231.00;5063809;28;20507;-75
2023/01/19 05:48:24;;;;;;;11.47;8.50;;;;;;;-6.01;100.00;95212.25;5066571;28;20534;-74
2023/01/19 05:50:56;;;;;;;12.60;11.00;;;;;;;-5.95;100.00;95213.06;5040547;28;20513;-74
2023/01/19 05:53:23;;;;;;;12.33;10.30;;;;;;;-6.28;100.00;95196.94;5083576;28;20435;-74
2023/01/19 05:55:50;;;;;;;25.00;12.70;;;;;;;-6.67;100.00;95175.06;5077458;28;20460;-74
2023/01/19 05:58:17;;;;;;;20.90;14.70;;;;;;;-6.63;100.00;95214.66;5078347;28;20459;-74
2023/01/19 06:00:43;;;;;;;18.00;14.10;;;;;;;-6.67;100.00;95186.13;5066262;28;20440;-74
2023/01/19 06:03:10;;;;;;;22.47;15.53;;;;;;;-6.61;100.00;95168.94;5098577;28;20507;-75
2023/01/19 06:05:38;;;;;;;17.70;14.93;;;;;;;-6.64;100.00;95164.31;5085313;28;20447;-75
2023/01/19 06:08:05;;;;;;;20.40;12.93;;;;;;;-6.57;100.00;95186.19;5083442;28;20429;-74
2023/01/19 06:10:31;;;;;;;18.17;11.80;;;;;;;-7.16;100.00;95146.94;5091371;28;20512;-74
2023/01/19 06:12:58;;;;;;;17.93;12.87;;;;;;;-7.02;100.00;95181.47;5096939;28;20443;-74
2023/01/19 06:15:25;;;;;;;16.23;12.33;;;;;;;-7.05;100.00;95184.53;5073384;28;20474;-74
2023/01/19 06:17:52;;;;;;;20.80;12.70;;;;;;;-6.98;100.00;95176.63;5071994;28;20530;-74
2023/01/19 06:20:19;;;;;;;15.73;10.77;;;;;;;-6.77;100.00;95173.19;5078928;28;20517;-74
2023/01/19 06:22:46;;;;;;;16.77;12.27;;;;;;;-6.60;100.00;95178.19;5074103;28;20531;-74
2023/01/19 06:25:13;;;;;;;13.50;10.80;;;;;;;-6.57;100.00;95182.84;5069681;28;20562;-74
2023/01/19 06:27:44;;;;;;;13.33;10.40;;;;;;;-6.47;100.00;95207.84;5071057;28;20531;-74
2023/01/19 06:30:11;;;;;;;20.37;12.57;;;;;;;-6.29;100.00;95233.16;5070767;28;20459;-74
2023/01/19 06:32:38;;;;;;;18.80;13.10;;;;;;;-6.70;100.00;95148.06;5079718;28;20544;-74
2023/01/19 06:35:06;;;;;;;18.70;15.10;;;;;;;-6.21;100.00;95204.41;5070174;28;21012;-75
2023/01/19 06:37:33;;;;;;;20.07;13.47;;;;;;;-6.42;100.00;95193.22;5059323;28;20960;-74
2023/01/19 06:40:00;;;;;;;17.43;11.47;;;;;;;-6.21;100.00;95211.34;5080008;28;20525;-74
2023/01/19 06:42:26;;;;;;;14.90;12.50;;;;;;;-6.17;100.00;95235.53;5077488;28;20994;-74
2023/01/19 06:44:53;;;;;;;14.23;11.93;;;;;;;-6.39;100.00;95212.53;5080361;28;20424;-74
2023/01/19 06:47:20;;;;;;;15.57;12.10;;;;;;;-6.23;100.00;95239.13;5082798;28;21097;-74
2023/01/19 06:49:47;;;;;;;20.03;14.73;;;;;;;-6.33;100.00;95239.81;5070735;28;20920;-74
2023/01/19 06:52:16;;;;;;;21.40;12.57;;;;;;;-6.31;100.00;95251.41;5083044;28;20467;-73
2023/01/19 06:54:43;;;;;;;16.83;13.57;;;;;;;-6.22;100.00;95267.16;5081739;28;20863;-73
2023/01/19 06:57:11;;;;;;;20.63;15.00;;;;;;;-6.24;100.00;95265.84;5075786;28;20459;-73
2023/01/19 06:59:38;;;;;;;17.10;13.00;;;;;;;-6.49;100.00;95248.44;5078825;28;20959;-73
2023/01/19 07:02:05;;;;;;;15.83;13.37;;;;;;;-6.24;100.00;95278.72;5082697;28;20835;-73
2023/01/19 07:04:51;;;;;;;20.47;13.67;;;;;;;-6.39;100.00;95272.44;5056607;28;20444;-73
2023/01/19 07:07:18;;;;;;;17.47;14.10;;;;;;;-6.62;100.00;95217.00;5080788;28;20558;-73
2023/01/19 07:09:45;;;;;;;26.23;17.47;;;;;;;-6.38;100.00;95240.56;5071339;28;20438;-73
2023/01/19 07:12:13;;;;;;;24.60;16.63;;;;;;;-6.07;100.00;95277.53;5081110;28;20467;-73
2023/01/19 07:14:41;;;;;;;37.57;22.17;;;;;;;-5.91;100.00;95280.22;5082452;28;20451;-73
2023/01/19 07:17:07;;;;;;;44.67;26.47;;;;;;;-5.96;100.00;95270.69;5083435;28;20443;-73
2023/01/19 07:19:34;;;;;;;43.43;24.77;;;;;;;-6.18;100.00;95244.28;5079473;28;20442;-73
2023/01/19 07:22:02;;;;;;;28.37;18.50;;;;;;;-6.00;100.00;95279.91;5063442;28;20882;-73
2023/01/19 07:24:36;;;;;;;22.50;16.60;;;;;;;-6.08;100.00;95262.34;5070544;28;20582;-73
2023/01/19 07:27:04;;;;;;;21.10;17.13;;;;;;;-6.16;100.00;95252.53;5067079;28;20545;-73
2023/01/19 07:29:30;;;;;;;21.37;16.73;;;;;;;-6.19;100.00;95253.78;5055083;28;20479;-73
2023/01/19 07:31:57;;;;;;;21.83;13.77;;;;;;;-6.07;100.00;95262.09;5083805;28;20558;-73
2023/01/19 07:34:24;;;;;;;20.80;14.47;;;;;;;-6.19;100.00;95246.09;5054675;28;20437;-73
2023/01/19 07:36:50;;;;;;;21.07;14.40;;;;;;;-5.96;100.00;95286.88;5075041;28;20456;-73
2023/01/19 07:39:17;;;;;;;18.33;13.30;;;;;;;-5.94;100.00;95285.84;5074621;28;20796;-73
2023/01/19 07:41:44;;;;;;;20.50;14.30;;;;;;;-6.08;100.00;95254.66;5083944;28;20462;-73
2023/01/19 07:44:11;;;;;;;25.03;14.30;;;;;;;-5.84;100.00;95291.03;5060900;28;20424;-73
2023/01/19 07:46:38;;;;;;;19.53;13.53;;;;;;;-5.91;100.00;95260.41;5083709;28;20549;-73
2023/01/19 07:49:05;;;;;;;21.97;15.30;;;;;;;-5.89;100.00;95239.53;5078880;28;20943;-73
2023/01/19 07:51:32;;;;;;;20.67;15.70;;;;;;;-5.54;100.00;95296.34;5060630;28;20452;-73
2023/01/19 07:53:58;;;;;;;23.47;14.63;;;;;;;-5.58;100.00;95304.84;5070802;28;20531;-73
2023/01/19 07:56:26;;;;;;;16.50;14.37;;;;;;;-5.60;100.00;95286.28;5084089;28;20451;-73
2023/01/19 07:58:53;;;;;;;21.23;13.37;;;;;;;-5.60;100.00;95281.91;5062234;28;20450;-73
2023/01/19 08:01:20;;;;;;;25.77;14.27;;;;;;;-5.52;100.00;95309.75;5081738;28;20446;-73
2023/01/19 08:03:48;;;;;;;23.07;15.00;;;;;;;-5.55;100.00;95297.38;5085499;28;20435;-73
2023/01/19 08:06:23;;;;;;;22.17;15.23;;;;;;;-5.32;100.00;95318.63;5067708;28;21058;-73
2023/01/19 08:08:50;;;;;;;16.80;12.90;;;;;;;-5.48;100.00;95300.50;5052100;28;20443;-73
2023/01/19 08:11:16;;;;;;;18.87;14.07;;;;;;;-5.51;100.00;95289.94;5085454;28;20466;-73
2023/01/19 08:13:43;;;;;;;25.80;16.63;;;;;;;-5.37;100.00;95309.81;5080210;28;20443;-73
2023/01/19 08:16:09;;;;;;;28.60;17.10;;;;;;;-5.34;100.00;95300.84;5078344;28;20472;-73
2023/01/19 08:18:36;;;;;;;20.70;14.83;;;;;;;-5.11;100.00;95318.44;5083535;28;20527;-73
2023/01/19 08:21:03;;;;;;;20.13;13.07;;;;;;;-5.28;100.00;95281.78;5086784;28;20939;-73
2023/01/19 08:23:30;;;;;;;17.27;15.30;;;;;;;-5.19;100.00;95308.63;5064430;28;20435;-73
2023/01/19 08:25:56;;;;;;;18.10;14.40;;;;;;;-5.08;100.00;95332.59;5077347;28;20833;-73
2023/01/19 08:28:24;;;;;;;18.70;14.20;;;;;;;-5.11;100.00;95317.66;5081172;28;20459;-73
2023/01/19 08:30:54;;;;;;;20.57;14.10;;;;;;;-5.07;100.00;95316.91;5061430;28;20507;-73
2023/01/19 08:33:24;;;;;;;27.40;14.10;;;;;;;-5.08;100.00;95292.16;5082060;28;20924;-73
2023/01/19 08:35:52;;;;;;;18.50;13.90;;;;;;;-4.74;100.00;95334.78;5086369;28;20459;-73
2023/01/19 08:38:19;;;;;;;21.93;14.73;;;;;;;-4.72;100.00;95319.84;5082076;28;20522;-73
2023/01/19 08:40:45;;;;;;;24.10;14.40;;;;;;;-4.77;100.00;95311.06;5079351;28;20415;-73
2023/01/19 08:43:14;;;;;;;38.33;21.40;;;;;;;-4.48;100.00;95344.91;5081033;28;20424;-73
2023/01/19 08:45:48;;;;;;;37.67;21.10;;;;;;;-4.48;100.00;95326.84;5068107;28;20881;-73
2023/01/19 08:48:17;;;;;;;32.33;20.17;;;;;;;-4.15;100.00;95348.03;5083785;28;20442;-73
2023/01/19 08:50:46;;;;;;;68.67;33.00;;;;;;;-3.99;100.00;95351.41;5061364;28;20735;-73
2023/01/19 08:53:12;;;;;;;54.93;27.20;;;;;;;-3.87;100.00;95342.38;5078658;28;20776;-73
2023/01/19 08:55:39;;;;;;;51.37;24.30;;;;;;;-3.85;100.00;95320.69;5084709;28;20972;-73
2023/01/19 08:58:07;;;;;;;44.90;26.30;;;;;;;-3.47;100.00;95351.13;5068108;28;20439;-73
2023/01/19 09:00:39;;;;;;;31.73;18.20;;;;;;;-3.47;100.00;95350.31;5085894;28;20478;-73
2023/01/19 09:03:08;;;;;;;24.20;16.60;;;;;;;-3.40;100.00;95361.94;5084554;28;20481;-73
2023/01/19 09:05:37;;;;;;;20.27;11.93;;;;;;;-3.37;100.00;95358.81;5080770;28;20562;-73
2023/01/19 09:08:09;;;;;;;23.53;15.27;;;;;;;-3.57;100.00;95328.66;5058695;28;20433;-73
2023/01/19 09:10:37;;;;;;;23.03;13.53;;;;;;;-3.58;100.00;95321.94;5063744;28;20488;-73
2023/01/19 09:13:09;;;;;;;24.53;14.77;;;;;;;-3.31;100.00;95372.53;5057672;28;20967;-73
2023/01/19 09:15:37;;;;;;;14.57;12.60;;;;;;;-3.30;100.00;95366.31;5084008;28;20451;-73
2023/01/19 09:18:06;;;;;;;32.97;19.70;;;;;;;-3.27;100.00;95374.31;5078757;28;20489;-73
2023/01/19 09:20:34;;;;;;;16.30;14.00;;;;;;;-3.45;100.00;95356.03;5079389;28;20428;-73
2023/01/19 09:23:01;;;;;;;44.10;26.27;;;;;;;-3.20;100.00;95374.06;5079391;28;20437;-73
2023/01/19 09:25:28;;;;;;;35.90;20.40;;;;;;;-3.35;100.00;95361.91;5063765;28;20987;-73
2023/01/19 09:27:55;;;;;;;25.07;17.13;;;;;;;-3.29;100.00;95357.53;5075588;28;20547;-73
2023/01/19 09:30:22;;;;;;;17.63;12.40;;;;;;;-3.18;100.00;95374.56;5079098;28;20963;-73
2023/01/19 09:32:48;;;;;;;25.03;16.10;;;;;;;-3.29;100.00;95335.06;5084352;28;20460;-73
2023/01/19 09:35:15;;;;;;;17.20;12.33;;;;;;;-3.12;100.00;95370.91;5083551;28;20453;-73
2023/01/19 09:37:46;;;;;;;12.93;10.40;;;;;;;-3.27;100.00;95352.88;5058814;28;20442;-73
2023/01/19 09:40:15;;;;;;;18.87;13.43;;;;;;;-2.96;100.00;95374.22;5083709;28;20420;-73
2023/01/19 09:43:03;;;;;;;14.33;12.27;;;;;;;-2.96;100.00;95379.41;5070837;28;20515;-73
2023/01/19 09:45:52;;;;;;;8.57;7.40;;;;;;;-3.06;100.00;95387.97;5037432;28;20497;-73
2023/01/19 09:48:49;;;;;;;27.43;15.30;;;;;;;-3.02;100.00;95399.34;5057770;28;20917;-73
2023/01/19 09:51:22;;;;;;;17.53;13.73;;;;;;;-3.05;100.00;95374.00;5072095;28;20876;-73
2023/01/19 09:53:52;;;;;;;23.67;15.37;;;;;;;-2.93;100.00;95385.88;5076615;28;20443;-73
2023/01/19 09:56:19;;;;;;;19.30;16.27;;;;;;;-2.79;100.00;95387.63;5078472;28;20937;-73
2023/01/19 09:58:49;;;;;;;23.83;14.47;;;;;;;-2.87;100.00;95380.41;5066781;28;20428;-73
2023/01/19 10:01:32;;;;;;;32.90;23.40;;;;;;;-2.97;100.00;95367.50;5082711;28;20446;-73
2023/01/19 10:04:24;;;;;;;24.43;16.00;;;;;;;-2.98;100.00;95356.41;5051182;28;20991;-73
2023/01/19 10:06:58;;;;;;;35.27;29.63;;;;;;;-3.06;100.00;95354.38;5076233;28;20983;-73
2023/01/19 10:09:36;;;;;;;17.53;9.63;;;;;;;-2.87;100.00;95384.81;5071166;28;20974;-73
2023/01/19 10:12:27;;;;;;;12.83;11.43;;;;;;;-2.80;100.00;95386.09;5057655;28;20535;-73
2023/01/19 10:15:09;;;;;;;11.60;8.60;;;;;;;-2.84;100.00;95386.84;5089493;28;20916;-73
2023/01/19 10:18:13;;;;;;;10.20;9.17;;;;;;;-3.36;100.00;95311.28;5063058;28;20464;-73
2023/01/19 10:20:46;;;;;;;13.97;8.90;;;;;;;-2.83;100.00;95391.00;5073579;28;20494;-73
2023/01/19 10:23:34;;;;;;;11.77;8.93;;;;;;;-2.79;100.00;95379.88;5076206;28;20431;-73
2023/01/19 10:26:11;;;;;;;12.37;7.90;;;;;;;-2.82;100.00;95369.25;5041410;28;20507;-73
2023/01/19 10:28:39;;;;;;;13.03;7.30;;;;;;;-2.78;100.00;95362.53;5049800;28;20468;-73
2023/01/19 10:31:08;;;;;;;13.20;10.00;;;;;;;-2.77;100.00;95377.03;5080901;28;20433;-74
2023/01/19 10:33:37;;;;;;;9.57;8.57;;;;;;;-2.96;100.00;95353.53;5069672;28;20543;-73
2023/01/19 10:36:28;;;;;;;10.63;7.73;;;;;;;-2.66;100.00;95373.34;5079902;28;20465;-73
2023/01/19 10:38:56;;;;;;;11.47;7.10;;;;;;;-3.07;100.00;95337.31;5064556;28;20501;-73
2023/01/19 10:41:36;;;;;;;14.80;9.93;;;;;;;-2.85;100.00;95355.06;5069565;28;20455;-73
2023/01/19 10:44:04;;;;;;;12.20;9.27;;;;;;;-2.78;100.00;95365.91;5069410;28;20435;-73
2023/01/19 10:46:41;;;;;;;16.10;9.07;;;;;;;-2.72;100.00;95364.81;5069697;28;20452;-73
2023/01/19 10:49:28;;;;;;;8.80;7.07;;;;;;;-2.67;100.00;95374.41;5074296;28;20927;-73
2023/01/19 10:51:58;;;;;;;8.67;6.80;;;;;;;-2.87;100.00;95358.94;5061494;28;20456;-73
2023/01/19 10:54:28;;;;;;;10.97;8.87;;;;;;;-3.16;100.00;95301.94;5041350;28;20513;-74
2023/01/19 10:57:02;;;;;;;9.17;7.47;;;;;;;-2.77;100.00;95366.69;5069201;28;20975;-73
2023/01/19 10:59:37;;;;;;;12.00;7.40;;;;;;;-2.70;100.00;95380.06;5069646;28;20440;-73
2023/01/19 11:02:25;;;;;;;12.97;9.40;;;;;;;-2.61;100.00;95375.13;5049216;28;20867;-73
2023/01/19 11:05:31;;;;;;;14.33;8.70;;;;;;;-2.90;100.00;95331.81;5069294;28;20909;-74
2023/01/19 11:07:58;;;;;;;10.03;9.00;;;;;;;-2.58;100.00;95379.78;5069133;28;20444;-73
2023/01/19 11:10:29;;;;;;;10.00;8.33;;;;;;;-2.62;100.00;95391.69;5070601;28;20464;-73
2023/01/19 11:13:00;;;;;;;8.97;7.60;;;;;;;-2.65;100.00;95390.41;5070404;28;20456;-73
2023/01/19 11:15:45;;;;;;;10.50;8.23;;;;;;;-2.75;100.00;95388.63;5081213;28;20523;-73
2023/01/19 11:18:34;;;;;;;12.27;9.13;;;;;;;-2.85;100.00;95370.56;5057693;28;20445;-73
2023/01/19 11:21:08;;;;;;;9.40;7.97;;;;;;;-2.66;100.00;95388.88;5069508;28;20437;-73
2023/01/19 11:23:41;;;;;;;8.77;7.87;;;;;;;-2.68;100.00;95386.53;5052798;28;20440;-73
2023/01/19 11:26:31;;;;;;;10.20;7.93;;;;;;;-2.58;100.00;95395.28;5069788;28;20521;-73
2023/01/19 11:29:02;;;;;;;11.40;7.40;;;;;;;-2.75;100.00;95380.09;5070694;28;20601;-73
2023/01/19 11:31:29;;;;;;;8.87;7.87;;;;;;;-2.61;100.00;95391.44;5072044;28;20456;-73
2023/01/19 11:34:05;;;;;;;16.73;12.20;;;;;;;-2.89;100.00;95348.09;5073444;28;20431;-73
2023/01/19 11:36:34;;;;;;;9.40;8.17;;;;;;;-2.57;100.00;95399.44;5081199;28;20455;-74
2023/01/19 11:39:26;;;;;;;9.00;6.50;;;;;;;-2.89;100.00;95355.88;5092757;28;20460;-75
2023/01/19 11:41:59;;;;;;;10.10;7.47;;;;;;;-2.70;100.00;95391.19;5091853;28;20444;-74